createdAt,value
2023-04-18T00:00:40.058Z,99.94
2023-04-18T00:03:42.329Z,99.92
2023-04-18T00:06:44.334Z,99.44
2023-04-18T00:09:46.087Z,99.24
2023-04-18T00:12:48.944Z,100.00
2023-04-18T00:15:54.223Z,99.56
2023-04-18T00:18:57.220Z,98.54
2023-04-18T00:21:59.936Z,98.37
2023-04-18T00:25:01.849Z,98.40
2023-04-18T00:28:03.764Z,98.26
2023-04-18T00:31:05.781Z,97.90
2023-04-18T00:34:07.676Z,98.50
2023-04-18T00:37:09.611Z,98.74
2023-04-18T00:40:12.039Z,99.55
2023-04-18T00:43:14.734Z,99.57
2023-04-18T00:46:16.692Z,99.19
2023-04-18T00:49:18.708Z,98.91
2023-04-18T00:52:20.907Z,98.48
2023-04-18T00:55:23.009Z,98.46
2023-04-18T00:58:24.836Z,98.85
2023-04-18T01:01:27.022Z,98.70
2023-04-18T01:04:29.045Z,98.87
2023-04-18T01:07:31.874Z,98.15
2023-04-18T01:10:33.791Z,98.04
2023-04-18T01:13:35.607Z,98.92
2023-04-18T01:16:38.922Z,98.99
2023-04-18T01:19:41.019Z,99.25
2023-04-18T01:22:42.929Z,98.96
2023-04-18T01:25:45.533Z,99.46
2023-04-18T01:28:47.606Z,99.15
2023-04-18T01:31:49.452Z,99.65
2023-04-18T01:34:51.284Z,99.68
2023-04-18T01:37:53.132Z,100.00
2023-04-18T01:40:55.073Z,100.00
2023-04-18T01:43:56.989Z,99.16
2023-04-18T01:46:58.775Z,99.83
2023-04-18T01:50:00.985Z,100.00
2023-04-18T01:53:02.965Z,99.16
2023-04-18T01:56:04.980Z,98.75
2023-04-18T01:59:06.801Z,98.59
2023-04-18T02:02:11.358Z,98.43
2023-04-18T02:05:13.274Z,98.34
2023-04-18T02:08:15.247Z,98.19
2023-04-18T02:11:17.106Z,98.48
2023-04-18T02:14:18.982Z,99.42
2023-04-18T02:17:21.599Z,99.12
2023-04-18T02:20:23.446Z,98.49
2023-04-18T02:23:25.305Z,98.73
2023-04-18T02:26:27.168Z,98.75
2023-04-18T02:29:30.607Z,98.69
2023-04-18T02:32:32.513Z,98.44
2023-04-18T02:35:34.403Z,99.43
2023-04-18T02:38:36.256Z,98.99
2023-04-18T02:41:39.379Z,99.00
2023-04-18T02:44:41.157Z,99.06
2023-04-18T02:47:53.649Z,99.08
2023-04-18T02:51:05.313Z,98.94
2023-04-18T02:54:07.126Z,98.53
2023-04-18T02:57:08.869Z,98.10
2023-04-18T03:00:11.446Z,97.88
2023-04-18T03:03:13.391Z,97.95
2023-04-18T03:06:15.799Z,97.65
2023-04-18T03:09:17.831Z,98.03
2023-04-18T03:12:19.736Z,98.27
2023-04-18T03:15:21.599Z,97.85
2023-04-18T03:18:23.436Z,98.03
2023-04-18T03:21:25.643Z,97.84
2023-04-18T03:24:27.465Z,97.62
2023-04-18T03:27:29.236Z,98.19
2023-04-18T03:30:31.370Z,97.82
2023-04-18T03:33:33.178Z,97.36
2023-04-18T03:36:34.949Z,97.86
2023-04-18T03:39:36.772Z,97.40
2023-04-18T03:42:38.581Z,97.97
2023-04-18T03:45:40.758Z,97.07
2023-04-18T03:48:42.570Z,96.95
2023-04-18T03:51:49.483Z,97.27
2023-04-18T03:54:51.573Z,97.54
2023-04-18T03:57:53.326Z,97.07
2023-04-18T04:00:55.121Z,96.82
2023-04-18T04:03:56.971Z,96.88
2023-04-18T04:06:59.264Z,96.94
2023-04-18T04:10:01.383Z,97.40
2023-04-18T04:13:03.373Z,97.13
2023-04-18T04:16:05.730Z,97.29
2023-04-18T04:19:07.654Z,97.41
2023-04-18T04:22:09.616Z,97.24
2023-04-18T04:25:13.845Z,96.86
2023-04-18T04:28:16.017Z,97.06
2023-04-18T04:31:18.782Z,97.24
2023-04-18T04:34:21.577Z,97.52
2023-04-18T04:37:23.861Z,97.55
2023-04-18T04:40:25.758Z,97.54
2023-04-18T04:43:28.861Z,97.19
2023-04-18T04:46:31.165Z,97.43
2023-04-18T04:49:32.986Z,97.47
2023-04-18T04:52:34.990Z,97.30
2023-04-18T04:55:38.589Z,97.58
2023-04-18T04:58:40.551Z,97.60
2023-04-18T05:01:42.434Z,97.16
2023-04-18T05:04:44.272Z,97.37
2023-04-18T05:07:47.038Z,97.56
2023-04-18T05:10:50.122Z,96.96
2023-04-18T05:13:52.561Z,96.79
2023-04-18T05:16:55.898Z,96.68
2023-04-18T05:19:57.936Z,96.62
2023-04-18T05:23:00.226Z,96.22
2023-04-18T05:26:06.134Z,95.66
2023-04-18T05:29:08.341Z,95.17
2023-04-18T05:32:10.721Z,95.00
2023-04-18T05:35:13.057Z,94.56
2023-04-18T05:38:15.476Z,92.23
2023-04-18T05:41:17.574Z,92.57
2023-04-18T05:44:20.163Z,92.36
2023-04-18T05:47:26.811Z,92.32
2023-04-18T05:50:28.712Z,92.46
2023-04-18T05:53:30.573Z,92.63
2023-04-18T05:56:32.508Z,92.44
2023-04-18T05:59:34.306Z,92.17
2023-04-18T06:02:36.792Z,91.93
2023-04-18T06:05:38.749Z,92.02
2023-04-18T06:08:40.910Z,91.56
2023-04-18T06:11:42.695Z,91.26
2023-04-18T06:14:44.520Z,90.88
2023-04-18T06:17:46.349Z,87.55
2023-04-18T06:20:48.249Z,87.61
2023-04-18T06:23:50.262Z,87.22
2023-04-18T06:26:52.149Z,86.44
2023-04-18T06:29:55.010Z,87.58
2023-04-18T06:32:57.024Z,88.19
2023-04-18T06:35:59.212Z,86.84
2023-04-18T06:39:01.258Z,86.07
2023-04-18T06:42:04.802Z,86.19
2023-04-18T06:45:07.321Z,85.56
2023-04-18T06:48:10.710Z,84.96
2023-04-18T06:51:12.841Z,85.90
2023-04-18T06:54:14.853Z,86.35
2023-04-18T06:57:16.934Z,85.26
2023-04-18T07:00:19.106Z,85.90
2023-04-18T07:03:21.008Z,86.67
2023-04-18T07:06:22.893Z,85.93
2023-04-18T07:09:24.868Z,85.36
2023-04-18T07:12:27.569Z,87.76
2023-04-18T07:15:29.455Z,90.09
2023-04-18T07:18:37.907Z,90.60
2023-04-18T07:21:42.605Z,92.22
2023-04-18T07:24:44.693Z,90.15
2023-04-18T07:27:46.506Z,89.38
2023-04-18T07:30:48.405Z,91.63
2023-04-18T07:33:51.137Z,91.80
2023-04-18T07:36:53.048Z,91.52
2023-04-18T07:39:54.903Z,91.93
2023-04-18T07:42:56.844Z,91.80
2023-04-18T07:45:59.129Z,91.31
2023-04-18T07:49:02.391Z,91.01
2023-04-18T07:52:04.645Z,91.64
2023-04-18T07:55:07.157Z,92.28
2023-04-18T07:58:09.695Z,92.17
2023-04-18T08:01:15.197Z,92.60
2023-04-18T08:04:17.129Z,91.03
2023-04-18T08:07:18.991Z,90.92
2023-04-18T08:10:22.456Z,90.41
2023-04-18T08:13:25.467Z,89.84
2023-04-18T08:16:27.742Z,88.45
2023-04-18T08:19:29.732Z,87.16
2023-04-18T08:22:31.886Z,78.74
2023-04-18T08:25:33.694Z,81.16
2023-04-18T08:28:35.573Z,81.27
2023-04-18T08:31:39.011Z,76.81
2023-04-18T08:34:40.969Z,74.84
2023-04-18T08:37:43.441Z,75.21
2023-04-18T08:40:45.985Z,75.05
2023-04-18T08:43:48.986Z,71.58
2023-04-18T08:46:50.864Z,71.33
2023-04-18T08:49:53.735Z,71.14
2023-04-18T08:52:56.109Z,68.46
2023-04-18T08:56:00.314Z,67.88
2023-04-18T08:59:02.786Z,68.87
2023-04-18T09:02:06.499Z,70.65
2023-04-18T09:05:12.381Z,69.57
2023-04-18T09:08:24.369Z,70.91
2023-04-18T09:11:29.839Z,66.35
2023-04-18T09:14:32.680Z,64.34
2023-04-18T09:17:43.915Z,64.21
2023-04-18T09:20:47.665Z,64.41
2023-04-18T09:23:50.468Z,64.10
2023-04-18T09:26:56.027Z,63.00
2023-04-18T09:30:01.658Z,64.45
2023-04-18T09:33:12.739Z,63.74
2023-04-18T09:36:18.247Z,62.08
2023-04-18T09:39:28.932Z,61.97
2023-04-18T09:42:39.982Z,61.45
2023-04-18T09:45:42.396Z,61.22
2023-04-18T09:48:46.352Z,58.96
2023-04-18T09:51:53.841Z,58.70
2023-04-18T09:54:58.803Z,56.59
2023-04-18T09:58:04.028Z,58.97
2023-04-18T10:01:06.374Z,55.08
2023-04-18T10:04:09.168Z,56.99
2023-04-18T10:07:11.736Z,56.64
2023-04-18T10:10:14.089Z,56.83
2023-04-18T10:13:19.146Z,55.04
2023-04-18T10:16:21.482Z,53.94
2023-04-18T10:19:25.107Z,52.97
2023-04-18T10:22:33.747Z,53.24
2023-04-18T10:25:41.533Z,53.50
2023-04-18T10:29:02.743Z,53.40
2023-04-18T10:32:11.645Z,52.48
2023-04-18T10:35:13.531Z,52.63
2023-04-18T10:38:18.321Z,52.31
2023-04-18T10:41:25.270Z,52.05
2023-04-18T10:44:27.604Z,50.97
2023-04-18T10:47:29.543Z,47.72
2023-04-18T10:50:31.477Z,49.78
2023-04-18T10:53:33.604Z,50.82
2023-04-18T10:56:38.977Z,48.52
2023-04-18T10:59:51.697Z,48.98
2023-04-18T11:03:00.289Z,48.02
2023-04-18T11:06:04.507Z,47.37
2023-04-18T11:09:13.864Z,46.92
2023-04-18T11:12:16.324Z,44.74
2023-04-18T11:15:23.851Z,46.07
2023-04-18T11:18:26.726Z,46.99
2023-04-18T11:21:30.591Z,44.99
2023-04-18T11:24:35.565Z,46.00
2023-04-18T11:27:37.676Z,46.48
2023-04-18T11:30:41.837Z,47.00
2023-04-18T11:33:47.905Z,44.94
2023-04-18T11:36:52.585Z,45.92
2023-04-18T11:39:56.059Z,45.60
2023-04-18T11:43:05.764Z,46.81
2023-04-18T11:46:08.081Z,45.40
2023-04-18T11:49:27.355Z,38.94
2023-04-18T11:52:30.795Z,39.09
2023-04-18T11:55:32.728Z,39.57
2023-04-18T11:58:36.281Z,38.78
2023-04-18T12:01:38.065Z,39.78
2023-04-18T12:04:59.626Z,38.53
2023-04-18T12:08:08.668Z,37.20
2023-04-18T12:11:20.258Z,36.94
2023-04-18T12:14:22.708Z,36.87
2023-04-18T12:17:27.676Z,36.95
2023-04-18T12:20:46.181Z,39.28
2023-04-18T12:23:48.234Z,38.58
2023-04-18T12:26:50.042Z,38.47
2023-04-18T12:29:51.844Z,36.66
2023-04-18T12:32:55.967Z,36.37
2023-04-18T12:35:57.863Z,37.03
2023-04-18T12:38:59.593Z,37.26
2023-04-18T12:42:02.290Z,37.10
2023-04-18T12:45:07.672Z,36.46
2023-04-18T12:48:09.792Z,36.53
2023-04-18T12:51:11.672Z,37.31
2023-04-18T12:54:13.683Z,35.49
2023-04-18T12:57:15.750Z,35.10
2023-04-18T13:00:17.740Z,34.95
2023-04-18T13:03:19.706Z,35.82
2023-04-18T13:06:21.602Z,35.75
2023-04-18T13:09:24.518Z,35.84
2023-04-18T13:12:26.577Z,34.28
2023-04-18T13:15:28.473Z,35.20
2023-04-18T13:18:30.302Z,34.90
2023-04-18T13:21:32.095Z,35.30
2023-04-18T13:24:34.010Z,35.65
2023-04-18T13:27:36.449Z,34.76
2023-04-18T13:30:38.275Z,34.35
2023-04-18T13:33:40.274Z,34.38
2023-04-18T13:36:43.416Z,33.99
2023-04-18T13:39:46.344Z,33.50
2023-04-18T13:42:48.712Z,32.93
2023-04-18T13:45:50.748Z,34.56
2023-04-18T13:48:52.760Z,35.78
2023-04-18T13:51:59.549Z,33.07
2023-04-18T13:55:01.832Z,33.15
2023-04-18T13:58:03.824Z,32.46
2023-04-18T14:01:06.070Z,31.81
2023-04-18T14:04:08.090Z,31.70
2023-04-18T14:07:10.102Z,33.10
2023-04-18T14:10:12.081Z,32.27
2023-04-18T14:13:13.993Z,32.53
2023-04-18T14:16:15.799Z,32.89
2023-04-18T14:19:18.183Z,32.79
2023-04-18T14:22:19.904Z,32.64
2023-04-18T14:25:22.248Z,32.54
2023-04-18T14:28:25.129Z,32.80
2023-04-18T14:31:28.180Z,33.43
2023-04-18T14:34:31.220Z,32.23
2023-04-18T14:37:35.583Z,32.92
2023-04-18T14:40:37.600Z,33.65
2023-04-18T14:43:39.412Z,33.65
2023-04-18T14:46:43.882Z,33.27
2023-04-18T14:49:46.126Z,35.68
2023-04-18T14:52:47.924Z,34.73
2023-04-18T14:55:50.476Z,35.04
2023-04-18T14:58:52.574Z,35.95
2023-04-18T15:01:54.765Z,35.32
2023-04-18T15:04:56.713Z,35.88
2023-04-18T15:07:58.587Z,37.36
2023-04-18T15:11:01.151Z,37.41
2023-04-18T15:14:03.342Z,36.45
2023-04-18T15:17:05.716Z,36.13
2023-04-18T15:20:08.546Z,35.77
2023-04-18T15:23:13.692Z,36.52
2023-04-18T15:26:15.933Z,38.10
2023-04-18T15:29:18.096Z,36.89
2023-04-18T15:32:20.156Z,36.28
2023-04-18T15:35:22.007Z,37.64
2023-04-18T15:38:23.811Z,36.41
2023-04-18T15:41:26.582Z,37.80
2023-04-18T15:44:29.164Z,36.99
2023-04-18T15:47:33.902Z,37.27
2023-04-18T15:50:36.546Z,36.86
2023-04-18T15:53:38.388Z,36.16
2023-04-18T15:56:42.269Z,36.83
2023-04-18T15:59:48.403Z,36.46
2023-04-18T16:02:50.792Z,36.89
2023-04-18T16:05:52.638Z,37.03
2023-04-18T16:08:54.813Z,37.83
2023-04-18T16:11:57.464Z,37.21
2023-04-18T16:14:59.411Z,37.76
2023-04-18T16:18:01.931Z,39.08
2023-04-18T16:21:03.973Z,38.63
2023-04-18T16:24:06.389Z,39.53
2023-04-18T16:27:08.231Z,40.86
2023-04-18T16:30:10.449Z,42.32
2023-04-18T16:33:14.108Z,42.44
2023-04-18T16:36:17.427Z,42.14
2023-04-18T16:39:19.445Z,42.84
2023-04-18T16:42:21.574Z,43.59
2023-04-18T16:45:23.573Z,42.81
2023-04-18T16:48:28.199Z,42.79
2023-04-18T16:51:31.275Z,42.97
2023-04-18T16:54:33.064Z,43.26
2023-04-18T16:57:34.995Z,44.05
2023-04-18T17:00:38.376Z,43.90
2023-04-18T17:03:41.144Z,44.11
2023-04-18T17:06:43.798Z,44.70
2023-04-18T17:09:45.973Z,44.78
2023-04-18T17:12:49.882Z,44.86
2023-04-18T17:15:52.520Z,45.23
2023-04-18T17:18:54.570Z,45.50
2023-04-18T17:21:56.440Z,45.81
2023-04-18T17:24:58.223Z,46.35
2023-04-18T17:28:02.222Z,46.70
2023-04-18T17:31:04.446Z,47.08
2023-04-18T17:34:07.047Z,47.51
2023-04-18T17:37:09.048Z,48.16
2023-04-18T17:40:11.995Z,48.67
2023-04-18T17:43:15.150Z,49.50
2023-04-18T17:46:17.362Z,49.98
2023-04-18T17:49:19.512Z,50.40
2023-04-18T17:52:21.912Z,51.17
2023-04-18T17:55:24.234Z,51.41
2023-04-18T17:58:26.750Z,51.83
2023-04-18T18:01:30.418Z,52.40
2023-04-18T18:04:32.703Z,53.13
2023-04-18T18:07:37.435Z,54.09
2023-04-18T18:10:48.670Z,54.32
2023-04-18T18:13:56.652Z,54.80
2023-04-18T18:16:58.953Z,54.92
2023-04-18T18:20:01.211Z,55.22
2023-04-18T18:23:03.679Z,55.21
2023-04-18T18:26:09.940Z,55.41
2023-04-18T18:29:12.609Z,56.47
2023-04-18T18:32:15.006Z,56.47
2023-04-18T18:35:17.176Z,56.62
2023-04-18T18:38:20.101Z,56.55
2023-04-18T18:41:22.696Z,56.73
2023-04-18T18:44:27.315Z,59.46
2023-04-18T18:47:30.590Z,61.81
2023-04-18T18:50:33.730Z,61.76
2023-04-18T18:53:38.404Z,60.85
2023-04-18T18:56:44.247Z,59.37
2023-04-18T18:59:46.760Z,58.90
2023-04-18T19:02:48.973Z,59.04
2023-04-18T19:05:51.202Z,59.48
2023-04-18T19:08:53.035Z,59.34
2023-04-18T19:11:58.573Z,59.11
2023-04-18T19:15:00.761Z,59.19
2023-04-18T19:18:02.888Z,58.65
2023-04-18T19:21:05.108Z,58.58
2023-04-18T19:24:07.512Z,58.57
2023-04-18T19:27:09.401Z,58.33
2023-04-18T19:30:12.036Z,58.49
2023-04-18T19:33:14.377Z,58.59
2023-04-18T19:36:16.460Z,57.69
2023-04-18T19:39:19.158Z,56.64
2023-04-18T19:42:21.282Z,56.91
2023-04-18T19:45:24.688Z,57.24
2023-04-18T19:48:27.182Z,56.76
2023-04-18T19:51:29.322Z,56.51
2023-04-18T19:54:33.285Z,56.47
2023-04-18T19:57:39.602Z,56.52
2023-04-18T20:00:42.606Z,54.47
2023-04-18T20:03:45.074Z,53.41
2023-04-18T20:06:47.586Z,52.83
2023-04-18T20:09:54.672Z,52.23
2023-04-18T20:12:56.832Z,50.56
2023-04-18T20:15:59.200Z,51.06
2023-04-18T20:19:01.890Z,50.56
2023-04-18T20:22:03.815Z,50.41
2023-04-18T20:25:06.706Z,50.63
2023-04-18T20:28:09.553Z,50.78
2023-04-18T20:31:12.242Z,50.61
2023-04-18T20:34:14.885Z,50.34
2023-04-18T20:37:19.878Z,51.18
2023-04-18T20:40:22.514Z,51.77
2023-04-18T20:43:24.941Z,50.28
2023-04-18T20:46:26.850Z,50.39
2023-04-18T20:49:30.961Z,50.06
2023-04-18T20:52:33.177Z,50.85
2023-04-18T20:55:34.971Z,50.82
2023-04-18T20:58:38.066Z,51.30
2023-04-18T21:01:40.166Z,50.06
2023-04-18T21:04:42.156Z,51.95
2023-04-18T21:07:45.293Z,50.74
2023-04-18T21:10:47.725Z,51.02
2023-04-18T21:13:49.914Z,51.54
2023-04-18T21:16:51.677Z,51.99
2023-04-18T21:19:53.545Z,52.45
2023-04-18T21:22:55.442Z,52.57
2023-04-18T21:25:57.322Z,52.81
2023-04-18T21:29:00.837Z,53.17
2023-04-18T21:32:02.944Z,53.55
2023-04-18T21:35:05.910Z,53.95
2023-04-18T21:38:07.758Z,54.11
2023-04-18T21:41:09.820Z,54.62
2023-04-18T21:44:11.956Z,54.82
2023-04-18T21:47:13.754Z,55.46
2023-04-18T21:50:15.921Z,55.72
2023-04-18T21:53:17.772Z,55.97
2023-04-18T21:56:19.524Z,55.95
2023-04-18T21:59:21.596Z,55.98
2023-04-18T22:02:25.126Z,55.98
2023-04-18T22:05:27.936Z,56.22
2023-04-18T22:08:31.042Z,56.13
2023-04-18T22:11:33.388Z,55.90
2023-04-18T22:14:35.315Z,56.15
2023-04-18T22:17:38.067Z,55.99
2023-04-18T22:20:41.520Z,56.15
2023-04-18T22:23:43.635Z,56.19
2023-04-18T22:26:45.515Z,56.25
2023-04-18T22:29:48.038Z,56.24
2023-04-18T22:32:50.021Z,56.46
2023-04-18T22:35:52.439Z,56.35
2023-04-18T22:38:54.276Z,56.42
2023-04-18T22:41:56.445Z,56.06
2023-04-18T22:44:58.592Z,56.09
2023-04-18T22:48:01.032Z,56.12
2023-04-18T22:51:03.350Z,56.08
2023-04-18T22:54:05.580Z,56.30
2023-04-18T22:57:07.630Z,55.60
2023-04-18T23:00:10.222Z,55.63
2023-04-18T23:03:12.388Z,55.33
2023-04-18T23:06:14.325Z,55.16
2023-04-18T23:09:19.714Z,54.85
2023-04-18T23:12:22.008Z,54.54
2023-04-18T23:15:24.604Z,54.46
2023-04-18T23:18:29.912Z,54.00
2023-04-18T23:21:32.290Z,53.80
2023-04-18T23:24:34.310Z,53.80
2023-04-18T23:27:36.150Z,51.80
2023-04-18T23:30:37.955Z,53.36
2023-04-18T23:33:39.700Z,53.11
2023-04-18T23:36:42.354Z,53.21
2023-04-18T23:39:44.210Z,53.24
2023-04-18T23:42:47.180Z,53.25
2023-04-18T23:45:48.976Z,52.80
2023-04-18T23:48:52.153Z,52.81
2023-04-18T23:51:54.278Z,53.04
2023-04-18T23:54:59.701Z,52.74
2023-04-18T23:58:01.420Z,52.50
